sensor_id;sensor_type;location;lat;lon;timestamp;P1;durP1;ratioP1;P2;durP2;ratioP2
6394;SDS011;3230;42.588;23.358;2023-08-30T00:00:48;8.93;;;5.33;;
6394;SDS011;3230;42.588;23.358;2023-08-30T00:03:14;9.80;;;5.20;;
6394;SDS011;3230;42.588;23.358;2023-08-30T00:05:39;8.97;;;4.87;;
6394;SDS011;3230;42.588;23.358;2023-08-30T00:08:05;10.60;;;4.57;;
6394;SDS011;3230;42.588;23.358;2023-08-30T00:10:31;8.90;;;5.33;;
6394;SDS011;3230;42.588;23.358;2023-08-30T00:12:56;9.77;;;5.40;;
6394;SDS011;3230;42.588;23.358;2023-08-30T00:15:22;8.87;;;5.20;;
6394;SDS011;3230;42.588;23.358;2023-08-30T00:17:47;7.00;;;4.70;;
6394;SDS011;3230;42.588;23.358;2023-08-30T00:20:13;8.83;;;5.10;;
6394;SDS011;3230;42.588;23.358;2023-08-30T00:22:39;9.47;;;5.10;;
6394;SDS011;3230;42.588;23.358;2023-08-30T00:25:04;9.03;;;4.83;;
6394;SDS011;3230;42.588;23.358;2023-08-30T00:27:30;7.90;;;4.70;;
6394;SDS011;3230;42.588;23.358;2023-08-30T00:29:55;6.27;;;4.30;;
6394;SDS011;3230;42.588;23.358;2023-08-30T00:32:21;8.13;;;4.40;;
6394;SDS011;3230;42.588;23.358;2023-08-30T00:34:49;7.37;;;3.97;;
6394;SDS011;3230;42.588;23.358;2023-08-30T00:37:16;7.20;;;4.57;;
6394;SDS011;3230;42.588;23.358;2023-08-30T00:39:41;7.20;;;5.00;;
6394;SDS011;3230;42.588;23.358;2023-08-30T00:42:07;8.47;;;4.93;;
6394;SDS011;3230;42.588;23.358;2023-08-30T00:44:36;8.40;;;4.70;;
6394;SDS011;3230;42.588;23.358;2023-08-30T00:47:02;7.43;;;4.57;;
6394;SDS011;3230;42.588;23.358;2023-08-30T00:49:30;7.40;;;4.30;;
6394;SDS011;3230;42.588;23.358;2023-08-30T00:52:04;9.20;;;4.40;;
6394;SDS011;3230;42.588;23.358;2023-08-30T00:54:32;11.23;;;5.27;;
6394;SDS011;3230;42.588;23.358;2023-08-30T00:56:58;6.53;;;3.83;;
6394;SDS011;3230;42.588;23.358;2023-08-30T00:59:26;7.80;;;4.33;;
6394;SDS011;3230;42.588;23.358;2023-08-30T01:01:52;7.70;;;3.90;;
6394;SDS011;3230;42.588;23.358;2023-08-30T01:04:20;6.60;;;4.10;;
6394;SDS011;3230;42.588;23.358;2023-08-30T01:06:45;6.33;;;4.03;;
6394;SDS011;3230;42.588;23.358;2023-08-30T01:09:11;7.63;;;4.80;;
6394;SDS011;3230;42.588;23.358;2023-08-30T01:11:45;9.03;;;4.77;;
6394;SDS011;3230;42.588;23.358;2023-08-30T01:14:18;6.20;;;3.70;;
6394;SDS011;3230;42.588;23.358;2023-08-30T01:16:47;7.73;;;4.03;;
6394;SDS011;3230;42.588;23.358;2023-08-30T01:27:40;8.17;;;3.57;;
6394;SDS011;3230;42.588;23.358;2023-08-30T01:30:07;5.70;;;3.40;;
6394;SDS011;3230;42.588;23.358;2023-08-30T01:32:35;4.97;;;3.00;;
6394;SDS011;3230;42.588;23.358;2023-08-30T01:35:03;6.10;;;3.27;;
6394;SDS011;3230;42.588;23.358;2023-08-30T01:37:30;5.77;;;2.93;;
6394;SDS011;3230;42.588;23.358;2023-08-30T01:39:57;5.83;;;2.60;;
6394;SDS011;3230;42.588;23.358;2023-08-30T01:42:26;4.90;;;2.90;;
6394;SDS011;3230;42.588;23.358;2023-08-30T01:44:52;5.87;;;3.37;;
6394;SDS011;3230;42.588;23.358;2023-08-30T01:47:22;5.57;;;3.20;;
6394;SDS011;3230;42.588;23.358;2023-08-30T01:49:49;7.30;;;4.07;;
6394;SDS011;3230;42.588;23.358;2023-08-30T01:52:15;5.60;;;3.33;;
6394;SDS011;3230;42.588;23.358;2023-08-30T01:54:41;5.03;;;3.13;;
6394;SDS011;3230;42.588;23.358;2023-08-30T01:57:09;5.97;;;3.50;;
6394;SDS011;3230;42.588;23.358;2023-08-30T01:59:34;6.13;;;3.30;;
6394;SDS011;3230;42.588;23.358;2023-08-30T02:02:00;5.33;;;3.30;;
6394;SDS011;3230;42.588;23.358;2023-08-30T02:04:25;7.60;;;3.70;;
6394;SDS011;3230;42.588;23.358;2023-08-30T02:06:54;5.77;;;3.30;;
6394;SDS011;3230;42.588;23.358;2023-08-30T02:12:00;7.50;;;3.73;;
6394;SDS011;3230;42.588;23.358;2023-08-30T02:14:30;6.10;;;3.77;;
6394;SDS011;3230;42.588;23.358;2023-08-30T02:16:57;6.43;;;3.53;;
6394;SDS011;3230;42.588;23.358;2023-08-30T02:19:23;7.17;;;3.83;;
6394;SDS011;3230;42.588;23.358;2023-08-30T02:21:49;6.00;;;3.70;;
6394;SDS011;3230;42.588;23.358;2023-08-30T02:24:14;7.90;;;3.80;;
6394;SDS011;3230;42.588;23.358;2023-08-30T02:26:40;8.10;;;3.50;;
6394;SDS011;3230;42.588;23.358;2023-08-30T02:29:05;6.67;;;3.77;;
6394;SDS011;3230;42.588;23.358;2023-08-30T02:31:31;7.17;;;3.90;;
6394;SDS011;3230;42.588;23.358;2023-08-30T02:33:56;5.63;;;3.40;;
6394;SDS011;3230;42.588;23.358;2023-08-30T02:36:22;5.93;;;3.67;;
6394;SDS011;3230;42.588;23.358;2023-08-30T02:38:47;10.77;;;4.83;;
6394;SDS011;3230;42.588;23.358;2023-08-30T02:41:12;6.00;;;3.53;;
6394;SDS011;3230;42.588;23.358;2023-08-30T02:43:38;7.30;;;4.20;;
6394;SDS011;3230;42.588;23.358;2023-08-30T02:46:03;7.70;;;4.10;;
6394;SDS011;3230;42.588;23.358;2023-08-30T02:48:30;7.20;;;3.90;;
6394;SDS011;3230;42.588;23.358;2023-08-30T02:50:58;5.57;;;3.10;;
6394;SDS011;3230;42.588;23.358;2023-08-30T02:53:24;5.10;;;3.43;;
6394;SDS011;3230;42.588;23.358;2023-08-30T02:55:49;4.60;;;2.87;;
6394;SDS011;3230;42.588;23.358;2023-08-30T02:58:15;8.93;;;3.67;;
6394;SDS011;3230;42.588;23.358;2023-08-30T03:00:40;5.73;;;3.57;;
6394;SDS011;3230;42.588;23.358;2023-08-30T03:03:06;6.70;;;3.80;;
6394;SDS011;3230;42.588;23.358;2023-08-30T03:05:31;5.97;;;3.53;;
6394;SDS011;3230;42.588;23.358;2023-08-30T03:07:57;7.30;;;3.63;;
6394;SDS011;3230;42.588;23.358;2023-08-30T03:10:22;4.90;;;3.00;;
6394;SDS011;3230;42.588;23.358;2023-08-30T03:12:48;5.30;;;3.27;;
6394;SDS011;3230;42.588;23.358;2023-08-30T03:15:14;9.43;;;3.83;;
6394;SDS011;3230;42.588;23.358;2023-08-30T03:17:39;5.90;;;3.30;;
6394;SDS011;3230;42.588;23.358;2023-08-30T03:20:05;5.23;;;3.17;;
6394;SDS011;3230;42.588;23.358;2023-08-30T03:22:31;5.60;;;3.37;;
6394;SDS011;3230;42.588;23.358;2023-08-30T03:24:57;5.87;;;3.20;;
6394;SDS011;3230;42.588;23.358;2023-08-30T03:27:23;5.13;;;3.23;;
6394;SDS011;3230;42.588;23.358;2023-08-30T03:29:48;5.03;;;3.10;;
6394;SDS011;3230;42.588;23.358;2023-08-30T03:32:15;6.07;;;3.47;;
6394;SDS011;3230;42.588;23.358;2023-08-30T03:34:45;5.37;;;2.93;;
6394;SDS011;3230;42.588;23.358;2023-08-30T03:37:11;4.97;;;3.20;;
6394;SDS011;3230;42.588;23.358;2023-08-30T03:39:38;8.43;;;3.30;;
6394;SDS011;3230;42.588;23.358;2023-08-30T03:42:03;6.70;;;2.90;;
6394;SDS011;3230;42.588;23.358;2023-08-30T03:44:29;5.50;;;3.20;;
6394;SDS011;3230;42.588;23.358;2023-08-30T03:46:54;7.03;;;3.17;;
6394;SDS011;3230;42.588;23.358;2023-08-30T03:49:21;4.63;;;2.57;;
6394;SDS011;3230;42.588;23.358;2023-08-30T03:51:47;7.73;;;3.20;;
6394;SDS011;3230;42.588;23.358;2023-08-30T03:54:13;3.53;;;2.27;;
6394;SDS011;3230;42.588;23.358;2023-08-30T03:56:41;4.80;;;2.50;;
6394;SDS011;3230;42.588;23.358;2023-08-30T03:59:11;4.90;;;2.40;;
6394;SDS011;3230;42.588;23.358;2023-08-30T04:01:36;4.33;;;2.60;;
6394;SDS011;3230;42.588;23.358;2023-08-30T04:04:02;5.23;;;2.93;;
6394;SDS011;3230;42.588;23.358;2023-08-30T04:06:28;5.53;;;3.03;;
6394;SDS011;3230;42.588;23.358;2023-08-30T04:08:53;6.47;;;2.40;;
6394;SDS011;3230;42.588;23.358;2023-08-30T04:11:19;6.33;;;2.83;;
6394;SDS011;3230;42.588;23.358;2023-08-30T04:13:44;5.63;;;3.17;;
6394;SDS011;3230;42.588;23.358;2023-08-30T04:16:10;9.60;;;3.60;;
6394;SDS011;3230;42.588;23.358;2023-08-30T04:18:35;6.27;;;3.47;;
6394;SDS011;3230;42.588;23.358;2023-08-30T04:21:01;8.40;;;3.43;;
6394;SDS011;3230;42.588;23.358;2023-08-30T04:23:27;7.40;;;3.63;;
6394;SDS011;3230;42.588;23.358;2023-08-30T04:25:53;5.80;;;3.23;;
6394;SDS011;3230;42.588;23.358;2023-08-30T04:28:19;4.50;;;3.00;;
6394;SDS011;3230;42.588;23.358;2023-08-30T04:30:45;5.80;;;3.50;;
6394;SDS011;3230;42.588;23.358;2023-08-30T04:33:10;5.30;;;3.30;;
6394;SDS011;3230;42.588;23.358;2023-08-30T04:35:36;6.90;;;3.90;;
6394;SDS011;3230;42.588;23.358;2023-08-30T04:38:01;5.00;;;2.80;;
6394;SDS011;3230;42.588;23.358;2023-08-30T04:40:28;10.23;;;3.73;;
6394;SDS011;3230;42.588;23.358;2023-08-30T04:42:55;5.20;;;2.93;;
6394;SDS011;3230;42.588;23.358;2023-08-30T04:45:21;9.23;;;3.03;;
6394;SDS011;3230;42.588;23.358;2023-08-30T04:47:46;3.70;;;2.60;;
6394;SDS011;3230;42.588;23.358;2023-08-30T04:50:12;4.17;;;2.43;;
6394;SDS011;3230;42.588;23.358;2023-08-30T04:52:38;4.57;;;2.37;;
6394;SDS011;3230;42.588;23.358;2023-08-30T04:55:04;5.07;;;2.90;;
6394;SDS011;3230;42.588;23.358;2023-08-30T04:57:30;4.57;;;3.10;;
6394;SDS011;3230;42.588;23.358;2023-08-30T04:59:55;4.53;;;2.60;;
6394;SDS011;3230;42.588;23.358;2023-08-30T05:02:21;3.83;;;2.33;;
6394;SDS011;3230;42.588;23.358;2023-08-30T05:04:46;3.47;;;2.20;;
6394;SDS011;3230;42.588;23.358;2023-08-30T05:07:12;4.10;;;2.10;;
6394;SDS011;3230;42.588;23.358;2023-08-30T05:09:38;3.73;;;2.20;;
6394;SDS011;3230;42.588;23.358;2023-08-30T05:12:05;4.20;;;2.20;;
6394;SDS011;3230;42.588;23.358;2023-08-30T05:14:31;3.30;;;2.20;;
6394;SDS011;3230;42.588;23.358;2023-08-30T05:16:57;4.50;;;2.47;;
6394;SDS011;3230;42.588;23.358;2023-08-30T05:19:22;4.43;;;2.10;;
6394;SDS011;3230;42.588;23.358;2023-08-30T05:21:48;5.20;;;2.60;;
6394;SDS011;3230;42.588;23.358;2023-08-30T05:24:16;5.37;;;2.40;;
6394;SDS011;3230;42.588;23.358;2023-08-30T05:26:42;8.23;;;2.97;;
6394;SDS011;3230;42.588;23.358;2023-08-30T05:29:07;6.10;;;2.87;;
6394;SDS011;3230;42.588;23.358;2023-08-30T05:31:32;4.47;;;2.47;;
6394;SDS011;3230;42.588;23.358;2023-08-30T05:33:58;4.20;;;2.37;;
6394;SDS011;3230;42.588;23.358;2023-08-30T05:36:23;4.80;;;2.97;;
6394;SDS011;3230;42.588;23.358;2023-08-30T05:38:49;4.23;;;2.90;;
6394;SDS011;3230;42.588;23.358;2023-08-30T05:41:14;4.17;;;2.60;;
6394;SDS011;3230;42.588;23.358;2023-08-30T05:43:40;4.20;;;2.70;;
6394;SDS011;3230;42.588;23.358;2023-08-30T05:46:05;4.27;;;2.73;;
6394;SDS011;3230;42.588;23.358;2023-08-30T05:48:37;3.53;;;2.63;;
6394;SDS011;3230;42.588;23.358;2023-08-30T05:51:02;4.87;;;2.83;;
6394;SDS011;3230;42.588;23.358;2023-08-30T05:53:28;4.40;;;2.57;;
6394;SDS011;3230;42.588;23.358;2023-08-30T05:55:53;3.30;;;2.30;;
6394;SDS011;3230;42.588;23.358;2023-08-30T05:58:18;3.80;;;2.47;;
6394;SDS011;3230;42.588;23.358;2023-08-30T06:00:44;3.27;;;2.23;;
6394;SDS011;3230;42.588;23.358;2023-08-30T06:03:10;3.10;;;2.20;;
6394;SDS011;3230;42.588;23.358;2023-08-30T06:05:36;3.97;;;2.47;;
6394;SDS011;3230;42.588;23.358;2023-08-30T06:08:01;3.37;;;2.40;;
6394;SDS011;3230;42.588;23.358;2023-08-30T06:10:27;2.73;;;2.20;;
6394;SDS011;3230;42.588;23.358;2023-08-30T06:13:00;4.07;;;2.60;;
6394;SDS011;3230;42.588;23.358;2023-08-30T06:15:25;3.57;;;2.60;;
6394;SDS011;3230;42.588;23.358;2023-08-30T06:17:51;3.70;;;2.07;;
6394;SDS011;3230;42.588;23.358;2023-08-30T06:20:17;3.63;;;2.13;;
6394;SDS011;3230;42.588;23.358;2023-08-30T06:22:42;4.73;;;4.30;;
6394;SDS011;3230;42.588;23.358;2023-08-30T06:25:08;3.03;;;2.27;;
6394;SDS011;3230;42.588;23.358;2023-08-30T06:27:36;3.23;;;2.20;;
6394;SDS011;3230;42.588;23.358;2023-08-30T06:30:07;2.90;;;2.20;;
6394;SDS011;3230;42.588;23.358;2023-08-30T06:32:33;3.40;;;2.57;;
6394;SDS011;3230;42.588;23.358;2023-08-30T06:34:58;3.17;;;2.43;;
6394;SDS011;3230;42.588;23.358;2023-08-30T06:37:24;3.20;;;2.37;;
6394;SDS011;3230;42.588;23.358;2023-08-30T06:39:49;3.90;;;2.57;;
6394;SDS011;3230;42.588;23.358;2023-08-30T06:42:15;3.07;;;2.40;;
6394;SDS011;3230;42.588;23.358;2023-08-30T06:44:41;3.70;;;2.50;;
6394;SDS011;3230;42.588;23.358;2023-08-30T06:47:06;3.00;;;2.40;;
6394;SDS011;3230;42.588;23.358;2023-08-30T06:49:32;5.63;;;2.43;;
6394;SDS011;3230;42.588;23.358;2023-08-30T06:51:59;3.40;;;2.50;;
6394;SDS011;3230;42.588;23.358;2023-08-30T06:54:26;3.60;;;2.30;;
6394;SDS011;3230;42.588;23.358;2023-08-30T06:56:59;4.60;;;2.80;;
6394;SDS011;3230;42.588;23.358;2023-08-30T06:59:26;3.43;;;2.43;;
6394;SDS011;3230;42.588;23.358;2023-08-30T07:01:51;4.73;;;3.70;;
6394;SDS011;3230;42.588;23.358;2023-08-30T07:04:17;3.37;;;2.70;;
6394;SDS011;3230;42.588;23.358;2023-08-30T07:06:43;3.87;;;2.50;;
6394;SDS011;3230;42.588;23.358;2023-08-30T07:09:09;5.00;;;2.77;;
6394;SDS011;3230;42.588;23.358;2023-08-30T07:11:34;6.27;;;2.80;;
6394;SDS011;3230;42.588;23.358;2023-08-30T07:14:00;4.17;;;2.60;;
6394;SDS011;3230;42.588;23.358;2023-08-30T07:16:25;3.97;;;2.83;;
6394;SDS011;3230;42.588;23.358;2023-08-30T07:18:51;3.00;;;2.50;;
6394;SDS011;3230;42.588;23.358;2023-08-30T07:21:16;4.70;;;3.00;;
6394;SDS011;3230;42.588;23.358;2023-08-30T07:23:42;6.17;;;3.30;;
6394;SDS011;3230;42.588;23.358;2023-08-30T07:26:09;3.93;;;2.80;;
6394;SDS011;3230;42.588;23.358;2023-08-30T07:28:34;4.10;;;2.90;;
6394;SDS011;3230;42.588;23.358;2023-08-30T07:31:03;5.73;;;2.77;;
6394;SDS011;3230;42.588;23.358;2023-08-30T07:33:29;3.80;;;2.70;;
6394;SDS011;3230;42.588;23.358;2023-08-30T07:35:55;3.53;;;2.77;;
6394;SDS011;3230;42.588;23.358;2023-08-30T07:38:20;4.03;;;2.47;;
6394;SDS011;3230;42.588;23.358;2023-08-30T07:40:46;2.47;;;2.00;;
6394;SDS011;3230;42.588;23.358;2023-08-30T07:43:11;4.70;;;2.17;;
6394;SDS011;3230;42.588;23.358;2023-08-30T07:45:36;3.70;;;2.53;;
6394;SDS011;3230;42.588;23.358;2023-08-30T07:48:02;3.37;;;2.53;;
6394;SDS011;3230;42.588;23.358;2023-08-30T07:50:28;3.03;;;2.13;;
6394;SDS011;3230;42.588;23.358;2023-08-30T07:52:53;3.93;;;2.57;;
6394;SDS011;3230;42.588;23.358;2023-08-30T07:55:18;3.07;;;2.47;;
6394;SDS011;3230;42.588;23.358;2023-08-30T07:57:44;2.97;;;2.27;;
6394;SDS011;3230;42.588;23.358;2023-08-30T08:00:09;3.63;;;2.20;;
6394;SDS011;3230;42.588;23.358;2023-08-30T08:02:35;3.60;;;2.50;;
6394;SDS011;3230;42.588;23.358;2023-08-30T08:05:01;3.03;;;2.20;;
6394;SDS011;3230;42.588;23.358;2023-08-30T08:07:27;3.10;;;2.20;;
6394;SDS011;3230;42.588;23.358;2023-08-30T08:09:52;3.23;;;2.37;;
6394;SDS011;3230;42.588;23.358;2023-08-30T08:12:18;3.37;;;2.40;;
6394;SDS011;3230;42.588;23.358;2023-08-30T08:14:43;2.90;;;2.17;;
6394;SDS011;3230;42.588;23.358;2023-08-30T08:17:09;3.97;;;2.70;;
6394;SDS011;3230;42.588;23.358;2023-08-30T08:19:34;3.00;;;2.23;;
6394;SDS011;3230;42.588;23.358;2023-08-30T08:22:04;3.50;;;2.30;;
6394;SDS011;3230;42.588;23.358;2023-08-30T08:24:29;3.20;;;2.20;;
6394;SDS011;3230;42.588;23.358;2023-08-30T08:26:54;2.80;;;2.10;;
6394;SDS011;3230;42.588;23.358;2023-08-30T08:29:20;3.10;;;2.27;;
6394;SDS011;3230;42.588;23.358;2023-08-30T08:31:45;3.53;;;2.27;;
6394;SDS011;3230;42.588;23.358;2023-08-30T08:34:12;3.23;;;1.90;;
6394;SDS011;3230;42.588;23.358;2023-08-30T08:36:38;2.83;;;2.23;;
6394;SDS011;3230;42.588;23.358;2023-08-30T08:39:05;3.73;;;2.40;;
6394;SDS011;3230;42.588;23.358;2023-08-30T08:41:48;3.20;;;2.30;;
6394;SDS011;3230;42.588;23.358;2023-08-30T08:44:18;2.10;;;1.80;;
6394;SDS011;3230;42.588;23.358;2023-08-30T08:46:44;2.40;;;1.77;;
6394;SDS011;3230;42.588;23.358;2023-08-30T08:49:12;4.20;;;2.13;;
6394;SDS011;3230;42.588;23.358;2023-08-30T08:51:39;3.43;;;2.40;;
6394;SDS011;3230;42.588;23.358;2023-08-30T08:54:05;2.60;;;1.80;;
6394;SDS011;3230;42.588;23.358;2023-08-30T08:56:31;2.47;;;2.10;;
6394;SDS011;3230;42.588;23.358;2023-08-30T08:58:57;3.40;;;2.20;;
6394;SDS011;3230;42.588;23.358;2023-08-30T09:01:24;3.80;;;2.40;;
6394;SDS011;3230;42.588;23.358;2023-08-30T09:03:50;3.03;;;2.07;;
6394;SDS011;3230;42.588;23.358;2023-08-30T09:06:15;3.77;;;2.03;;
6394;SDS011;3230;42.588;23.358;2023-08-30T09:08:41;3.80;;;2.20;;
6394;SDS011;3230;42.588;23.358;2023-08-30T09:13:52;4.83;;;2.23;;
6394;SDS011;3230;42.588;23.358;2023-08-30T09:16:24;4.13;;;2.67;;
6394;SDS011;3230;42.588;23.358;2023-08-30T09:18:59;4.73;;;2.60;;
6394;SDS011;3230;42.588;23.358;2023-08-30T09:21:29;4.17;;;2.83;;
6394;SDS011;3230;42.588;23.358;2023-08-30T09:23:56;4.47;;;2.40;;
6394;SDS011;3230;42.588;23.358;2023-08-30T09:26:32;6.77;;;2.60;;
6394;SDS011;3230;42.588;23.358;2023-08-30T09:29:05;4.17;;;2.67;;
6394;SDS011;3230;42.588;23.358;2023-08-30T09:31:34;3.40;;;2.10;;
6394;SDS011;3230;42.588;23.358;2023-08-30T09:34:02;2.80;;;2.00;;
6394;SDS011;3230;42.588;23.358;2023-08-30T09:36:34;3.60;;;2.20;;
6394;SDS011;3230;42.588;23.358;2023-08-30T09:39:04;4.00;;;2.57;;
6394;SDS011;3230;42.588;23.358;2023-08-30T09:41:34;4.10;;;2.10;;
6394;SDS011;3230;42.588;23.358;2023-08-30T09:44:00;4.17;;;2.30;;
6394;SDS011;3230;42.588;23.358;2023-08-30T09:46:31;3.17;;;2.17;;
6394;SDS011;3230;42.588;23.358;2023-08-30T09:48:56;5.90;;;2.30;;
6394;SDS011;3230;42.588;23.358;2023-08-30T09:51:23;4.43;;;2.30;;
6394;SDS011;3230;42.588;23.358;2023-08-30T09:53:52;4.50;;;2.43;;
6394;SDS011;3230;42.588;23.358;2023-08-30T09:56:23;4.30;;;2.57;;
6394;SDS011;3230;42.588;23.358;2023-08-30T09:58:50;5.70;;;2.70;;
6394;SDS011;3230;42.588;23.358;2023-08-30T10:01:15;3.53;;;2.30;;
6394;SDS011;3230;42.588;23.358;2023-08-30T10:03:42;4.20;;;2.47;;
6394;SDS011;3230;42.588;23.358;2023-08-30T10:06:07;6.27;;;2.70;;
6394;SDS011;3230;42.588;23.358;2023-08-30T10:08:33;4.97;;;2.57;;
6394;SDS011;3230;42.588;23.358;2023-08-30T10:10:59;5.87;;;3.30;;
6394;SDS011;3230;42.588;23.358;2023-08-30T10:13:25;4.27;;;2.53;;
6394;SDS011;3230;42.588;23.358;2023-08-30T10:15:51;4.03;;;2.37;;
6394;SDS011;3230;42.588;23.358;2023-08-30T10:18:23;4.50;;;2.50;;
6394;SDS011;3230;42.588;23.358;2023-08-30T10:20:54;4.43;;;2.60;;
6394;SDS011;3230;42.588;23.358;2023-08-30T10:23:20;5.60;;;3.00;;
6394;SDS011;3230;42.588;23.358;2023-08-30T10:25:48;5.83;;;2.40;;
6394;SDS011;3230;42.588;23.358;2023-08-30T10:28:15;5.80;;;2.77;;
6394;SDS011;3230;42.588;23.358;2023-08-30T10:30:41;5.90;;;2.70;;
6394;SDS011;3230;42.588;23.358;2023-08-30T10:33:14;5.20;;;2.60;;
6394;SDS011;3230;42.588;23.358;2023-08-30T10:35:48;5.83;;;2.97;;
6394;SDS011;3230;42.588;23.358;2023-08-30T10:38:25;6.40;;;2.60;;
6394;SDS011;3230;42.588;23.358;2023-08-30T10:40:52;4.00;;;2.60;;
6394;SDS011;3230;42.588;23.358;2023-08-30T10:43:27;4.43;;;2.70;;
6394;SDS011;3230;42.588;23.358;2023-08-30T10:46:02;4.20;;;2.90;;
6394;SDS011;3230;42.588;23.358;2023-08-30T10:48:35;4.93;;;3.17;;
6394;SDS011;3230;42.588;23.358;2023-08-30T10:51:06;4.30;;;2.70;;
6394;SDS011;3230;42.588;23.358;2023-08-30T10:53:54;5.47;;;3.10;;
6394;SDS011;3230;42.588;23.358;2023-08-30T10:56:26;4.20;;;2.70;;
6394;SDS011;3230;42.588;23.358;2023-08-30T10:58:55;5.13;;;2.77;;
6394;SDS011;3230;42.588;23.358;2023-08-30T11:01:21;5.37;;;2.77;;
6394;SDS011;3230;42.588;23.358;2023-08-30T11:03:47;4.53;;;2.50;;
6394;SDS011;3230;42.588;23.358;2023-08-30T11:06:14;4.50;;;2.83;;
6394;SDS011;3230;42.588;23.358;2023-08-30T11:08:42;6.67;;;2.90;;
6394;SDS011;3230;42.588;23.358;2023-08-30T11:11:08;6.07;;;3.07;;
6394;SDS011;3230;42.588;23.358;2023-08-30T11:13:36;4.50;;;3.00;;
6394;SDS011;3230;42.588;23.358;2023-08-30T11:16:01;5.53;;;2.60;;
6394;SDS011;3230;42.588;23.358;2023-08-30T11:18:30;5.37;;;3.07;;
6394;SDS011;3230;42.588;23.358;2023-08-30T11:20:59;4.33;;;2.70;;
6394;SDS011;3230;42.588;23.358;2023-08-30T11:23:26;4.40;;;3.10;;
6394;SDS011;3230;42.588;23.358;2023-08-30T11:25:51;5.40;;;2.87;;
6394;SDS011;3230;42.588;23.358;2023-08-30T11:28:26;4.53;;;2.50;;
6394;SDS011;3230;42.588;23.358;2023-08-30T11:30:55;4.90;;;2.53;;
6394;SDS011;3230;42.588;23.358;2023-08-30T11:33:21;4.97;;;3.30;;
6394;SDS011;3230;42.588;23.358;2023-08-30T11:35:49;4.83;;;3.10;;
6394;SDS011;3230;42.588;23.358;2023-08-30T11:38:16;7.90;;;3.03;;
6394;SDS011;3230;42.588;23.358;2023-08-30T11:40:43;4.60;;;2.90;;
6394;SDS011;3230;42.588;23.358;2023-08-30T11:43:09;5.23;;;3.00;;
6394;SDS011;3230;42.588;23.358;2023-08-30T11:45:35;4.80;;;2.70;;
6394;SDS011;3230;42.588;23.358;2023-08-30T11:48:00;5.63;;;3.00;;
6394;SDS011;3230;42.588;23.358;2023-08-30T11:50:26;5.90;;;2.83;;
6394;SDS011;3230;42.588;23.358;2023-08-30T11:52:52;5.13;;;2.63;;
6394;SDS011;3230;42.588;23.358;2023-08-30T11:55:19;4.53;;;2.93;;
6394;SDS011;3230;42.588;23.358;2023-08-30T11:57:48;6.63;;;3.60;;
6394;SDS011;3230;42.588;23.358;2023-08-30T12:00:14;6.90;;;3.03;;
6394;SDS011;3230;42.588;23.358;2023-08-30T12:02:40;4.83;;;3.00;;
6394;SDS011;3230;42.588;23.358;2023-08-30T12:05:06;5.03;;;3.10;;
6394;SDS011;3230;42.588;23.358;2023-08-30T12:07:36;5.17;;;3.07;;
6394;SDS011;3230;42.588;23.358;2023-08-30T12:10:05;5.33;;;3.40;;
6394;SDS011;3230;42.588;23.358;2023-08-30T12:12:34;4.90;;;3.07;;
6394;SDS011;3230;42.588;23.358;2023-08-30T12:15:09;4.93;;;3.03;;
6394;SDS011;3230;42.588;23.358;2023-08-30T12:17:35;5.30;;;3.50;;
6394;SDS011;3230;42.588;23.358;2023-08-30T12:20:01;3.90;;;2.80;;
6394;SDS011;3230;42.588;23.358;2023-08-30T12:22:40;4.20;;;2.83;;
6394;SDS011;3230;42.588;23.358;2023-08-30T12:27:42;6.10;;;3.70;;
6394;SDS011;3230;42.588;23.358;2023-08-30T12:30:08;5.53;;;2.97;;
6394;SDS011;3230;42.588;23.358;2023-08-30T12:32:34;7.60;;;3.50;;
6394;SDS011;3230;42.588;23.358;2023-08-30T12:34:59;4.97;;;3.43;;
6394;SDS011;3230;42.588;23.358;2023-08-30T12:37:24;6.70;;;3.60;;
6394;SDS011;3230;42.588;23.358;2023-08-30T12:39:50;5.07;;;3.13;;
6394;SDS011;3230;42.588;23.358;2023-08-30T12:42:15;5.23;;;3.33;;
6394;SDS011;3230;42.588;23.358;2023-08-30T12:44:40;4.83;;;3.20;;
6394;SDS011;3230;42.588;23.358;2023-08-30T12:47:06;4.93;;;2.80;;
6394;SDS011;3230;42.588;23.358;2023-08-30T12:49:31;5.10;;;3.40;;
6394;SDS011;3230;42.588;23.358;2023-08-30T12:51:57;6.47;;;3.97;;
6394;SDS011;3230;42.588;23.358;2023-08-30T12:54:22;4.80;;;2.93;;
6394;SDS011;3230;42.588;23.358;2023-08-30T12:56:47;4.73;;;2.97;;
6394;SDS011;3230;42.588;23.358;2023-08-30T12:59:13;6.60;;;3.77;;
6394;SDS011;3230;42.588;23.358;2023-08-30T13:01:38;9.50;;;3.47;;
6394;SDS011;3230;42.588;23.358;2023-08-30T13:04:04;7.57;;;4.00;;
6394;SDS011;3230;42.588;23.358;2023-08-30T13:06:29;5.57;;;3.53;;
6394;SDS011;3230;42.588;23.358;2023-08-30T13:08:54;4.57;;;3.53;;
6394;SDS011;3230;42.588;23.358;2023-08-30T13:11:20;4.80;;;3.23;;
6394;SDS011;3230;42.588;23.358;2023-08-30T13:13:45;7.20;;;4.20;;
6394;SDS011;3230;42.588;23.358;2023-08-30T13:16:11;6.40;;;3.80;;
6394;SDS011;3230;42.588;23.358;2023-08-30T13:18:36;5.30;;;3.20;;
6394;SDS011;3230;42.588;23.358;2023-08-30T13:21:02;6.63;;;3.90;;
6394;SDS011;3230;42.588;23.358;2023-08-30T13:23:29;7.77;;;3.17;;
6394;SDS011;3230;42.588;23.358;2023-08-30T13:25:54;6.30;;;4.00;;
6394;SDS011;3230;42.588;23.358;2023-08-30T13:28:20;6.60;;;4.10;;
6394;SDS011;3230;42.588;23.358;2023-08-30T13:30:45;4.13;;;2.77;;
6394;SDS011;3230;42.588;23.358;2023-08-30T13:33:11;7.10;;;4.80;;
6394;SDS011;3230;42.588;23.358;2023-08-30T13:35:40;7.60;;;4.00;;
6394;SDS011;3230;42.588;23.358;2023-08-30T13:38:05;4.40;;;3.00;;
6394;SDS011;3230;42.588;23.358;2023-08-30T13:40:31;8.87;;;6.00;;
6394;SDS011;3230;42.588;23.358;2023-08-30T13:42:56;4.60;;;2.97;;
6394;SDS011;3230;42.588;23.358;2023-08-30T13:45:22;12.97;;;7.57;;
6394;SDS011;3230;42.588;23.358;2023-08-30T13:47:47;9.80;;;6.27;;
6394;SDS011;3230;42.588;23.358;2023-08-30T13:50:16;11.07;;;5.70;;
6394;SDS011;3230;42.588;23.358;2023-08-30T13:52:42;4.43;;;2.73;;
6394;SDS011;3230;42.588;23.358;2023-08-30T13:55:07;4.70;;;2.90;;
6394;SDS011;3230;42.588;23.358;2023-08-30T13:57:33;3.47;;;2.57;;
6394;SDS011;3230;42.588;23.358;2023-08-30T13:59:58;4.80;;;2.37;;
6394;SDS011;3230;42.588;23.358;2023-08-30T14:02:24;5.77;;;2.67;;
6394;SDS011;3230;42.588;23.358;2023-08-30T14:04:50;5.33;;;2.97;;
6394;SDS011;3230;42.588;23.358;2023-08-30T14:07:15;5.77;;;2.90;;
6394;SDS011;3230;42.588;23.358;2023-08-30T14:09:41;4.30;;;2.10;;
6394;SDS011;3230;42.588;23.358;2023-08-30T14:12:06;3.13;;;1.90;;
6394;SDS011;3230;42.588;23.358;2023-08-30T14:14:32;4.50;;;2.27;;
6394;SDS011;3230;42.588;23.358;2023-08-30T14:16:57;3.63;;;2.03;;
6394;SDS011;3230;42.588;23.358;2023-08-30T14:19:22;4.40;;;2.40;;
6394;SDS011;3230;42.588;23.358;2023-08-30T14:21:48;3.73;;;2.30;;
6394;SDS011;3230;42.588;23.358;2023-08-30T14:24:13;3.40;;;2.20;;
6394;SDS011;3230;42.588;23.358;2023-08-30T14:26:39;3.53;;;1.90;;
6394;SDS011;3230;42.588;23.358;2023-08-30T14:29:04;4.47;;;2.40;;
6394;SDS011;3230;42.588;23.358;2023-08-30T14:31:29;3.53;;;1.90;;
6394;SDS011;3230;42.588;23.358;2023-08-30T14:33:55;3.90;;;1.87;;
6394;SDS011;3230;42.588;23.358;2023-08-30T14:36:24;2.70;;;1.70;;
6394;SDS011;3230;42.588;23.358;2023-08-30T14:38:50;3.90;;;2.17;;
6394;SDS011;3230;42.588;23.358;2023-08-30T14:41:15;3.30;;;1.67;;
6394;SDS011;3230;42.588;23.358;2023-08-30T14:43:42;3.03;;;1.70;;
6394;SDS011;3230;42.588;23.358;2023-08-30T14:46:08;4.00;;;2.00;;
6394;SDS011;3230;42.588;23.358;2023-08-30T14:48:33;3.70;;;1.80;;
6394;SDS011;3230;42.588;23.358;2023-08-30T14:50:59;3.13;;;2.00;;
6394;SDS011;3230;42.588;23.358;2023-08-30T14:53:26;5.60;;;2.03;;
6394;SDS011;3230;42.588;23.358;2023-08-30T14:55:52;3.50;;;1.70;;
6394;SDS011;3230;42.588;23.358;2023-08-30T14:58:17;4.47;;;2.00;;
6394;SDS011;3230;42.588;23.358;2023-08-30T15:00:43;2.00;;;1.40;;
6394;SDS011;3230;42.588;23.358;2023-08-30T15:03:09;3.07;;;1.60;;
6394;SDS011;3230;42.588;23.358;2023-08-30T15:05:35;2.47;;;1.60;;
6394;SDS011;3230;42.588;23.358;2023-08-30T15:08:00;2.50;;;1.20;;
6394;SDS011;3230;42.588;23.358;2023-08-30T15:10:25;3.00;;;1.50;;
6394;SDS011;3230;42.588;23.358;2023-08-30T15:12:51;2.27;;;1.33;;